createdAt,value
2016-11-22T21:25:09.195Z,67.5
2016-11-22T21:25:26.027Z,67.7
2016-11-22T21:26:26.396Z,69.1
2016-11-22T21:27:26.766Z,70.3
2016-11-22T21:28:27.140Z,66.7
2016-11-22T21:29:27.511Z,69.4
2016-11-22T21:30:27.883Z,70.7
2016-11-22T21:31:28.253Z,71.1
2016-11-22T21:32:28.622Z,72.1
2016-11-22T21:33:28.988Z,81.4
2016-11-22T21:35:25.673Z,70.3
2016-11-22T21:36:26.048Z,73
2016-11-22T21:37:26.412Z,75.1
2016-11-22T21:38:26.787Z,75.8
2016-11-22T21:39:27.154Z,76.6
2016-11-22T21:40:27.523Z,76.6
2016-11-22T21:41:27.891Z,77.4
2016-11-22T21:42:28.255Z,77.4
2016-11-22T21:43:28.616Z,77.7
2016-11-22T21:44:28.984Z,77.6
2016-11-22T21:45:29.361Z,77.8
2016-11-22T21:46:29.732Z,77.8
2016-11-22T21:47:30.109Z,77.9
2016-11-22T21:48:30.478Z,77.7
2016-11-22T21:49:30.837Z,77.9
2016-11-22T21:50:31.198Z,78.7
2016-11-22T21:51:31.555Z,78.5
2016-11-22T21:52:31.920Z,78.5
2016-11-22T21:53:32.297Z,78.6
2016-11-22T21:54:32.670Z,78.5
2016-11-22T21:55:33.045Z,78.6
2016-11-22T21:56:33.411Z,78.5
2016-11-22T21:57:33.768Z,78.3
2016-11-22T21:58:34.159Z,78.5
2016-11-22T21:59:34.519Z,78.8
2016-11-22T22:00:34.887Z,78.8
2016-11-22T22:01:35.261Z,78.6
2016-11-22T22:02:35.631Z,78.6
2016-11-22T22:03:36.006Z,78.8
2016-11-22T22:04:36.367Z,78.8
2016-11-22T22:05:36.732Z,79.1
2016-11-22T22:06:37.100Z,78.4
2016-11-22T22:07:37.471Z,71.8
2016-11-22T22:08:37.835Z,73.6
2016-11-22T22:09:38.201Z,76
2016-11-22T22:10:38.561Z,78.2
2016-11-22T22:11:38.921Z,79.4
2016-11-22T22:12:39.285Z,79.9
2016-11-22T22:13:39.652Z,80.2
2016-11-22T22:14:40.021Z,81
2016-11-22T22:15:40.393Z,81.6
2016-11-22T22:16:40.754Z,82
2016-11-22T22:17:41.143Z,82.9
2016-11-22T22:18:41.502Z,82.9
2016-11-22T22:19:41.859Z,83.3
2016-11-22T22:20:42.223Z,83.2
2016-11-22T22:21:42.589Z,83.6
2016-11-22T22:22:42.960Z,84.1
2016-11-22T22:23:43.328Z,85.3
2016-11-22T22:24:43.691Z,88.1
2016-11-22T22:25:44.050Z,84.6
2016-11-22T22:26:44.407Z,79.9
2016-11-22T22:27:44.768Z,77.9
2016-11-22T22:28:45.138Z,77.7
2016-11-22T22:29:45.510Z,76.5
2016-11-22T22:30:45.879Z,76.7
2016-11-22T22:31:46.245Z,76.6
2016-11-22T22:38:50.507Z,77.3
2016-11-22T22:39:50.869Z,77.5
2016-11-22T22:40:51.239Z,77.4
2016-11-22T22:41:51.604Z,77.1
2016-11-22T22:42:51.968Z,77.8
2016-11-22T22:43:52.330Z,77.8
2016-11-22T22:44:52.693Z,77.8
2016-11-22T22:45:53.058Z,77.7
2016-11-22T22:46:53.419Z,77.6
2016-11-22T22:47:53.785Z,77.6
2016-11-22T22:48:54.154Z,77.6
2016-11-22T22:49:54.527Z,77.5
2016-11-22T22:50:54.898Z,77.7
2016-11-22T22:51:55.266Z,77.7
2016-11-22T22:52:55.626Z,77.4
2016-11-22T22:53:55.984Z,77.3
2016-11-22T22:54:56.342Z,77.9
2016-11-22T22:55:56.706Z,77.9
2016-11-22T22:56:57.077Z,77.7
2016-11-22T22:57:57.448Z,78.1
2016-11-22T22:58:57.822Z,78.3
2016-11-22T22:59:58.186Z,78.6
2016-11-22T23:00:58.545Z,78.5
2016-11-22T23:01:58.903Z,78.4
2016-11-22T23:02:59.262Z,78.8
2016-11-22T23:03:59.678Z,78.8
2016-11-22T23:05:00.044Z,78.9
2016-11-22T23:06:00.415Z,79
2016-11-22T23:07:00.786Z,78.9
2016-11-22T23:08:01.146Z,78.9
2016-11-22T23:09:01.512Z,79
2016-11-22T23:10:01.883Z,78.9
2016-11-22T23:11:02.252Z,78.7
2016-11-22T23:12:02.613Z,78.7
2016-11-22T23:13:02.970Z,78.8
2016-11-22T23:14:03.332Z,79.1
2016-11-22T23:15:03.691Z,79.3
2016-11-22T23:16:04.054Z,79.4
2016-11-22T23:17:04.424Z,79.4
2016-11-22T23:18:04.793Z,79.4
2016-11-22T23:19:05.157Z,79.4
2016-11-22T23:20:05.526Z,79.5
2016-11-22T23:21:05.890Z,79.4
2016-11-22T23:22:06.250Z,79.4
2016-11-22T23:23:06.610Z,79.2
2016-11-22T23:24:06.972Z,79.2
2016-11-22T23:25:07.353Z,79.1
2016-11-22T23:26:07.719Z,79.2
2016-11-22T23:27:08.087Z,79.1
2016-11-22T23:28:08.478Z,79.3
2016-11-22T23:29:08.934Z,78.9
2016-11-22T23:30:09.294Z,79.2
2016-11-22T23:31:09.654Z,79.7
2016-11-22T23:32:10.020Z,79.4
2016-11-22T23:33:10.387Z,79.5
2016-11-22T23:34:10.751Z,79.4
2016-11-22T23:35:11.124Z,79
2016-11-22T23:36:11.835Z,79.4
2016-11-22T23:37:12.194Z,79.4
2016-11-22T23:38:12.556Z,79.2
2016-11-22T23:39:12.940Z,79.4
2016-11-22T23:40:13.306Z,79.8
2016-11-22T23:41:13.676Z,80
2016-11-22T23:42:14.040Z,79.2
2016-11-22T23:43:14.399Z,79.5
2016-11-22T23:44:14.764Z,79.6
2016-11-22T23:45:15.135Z,79.4
2016-11-22T23:46:15.507Z,80
2016-11-22T23:47:15.872Z,80
2016-11-22T23:48:16.241Z,79.8
2016-11-22T23:49:16.598Z,79.6
2016-11-22T23:50:16.952Z,79.7
2016-11-22T23:51:17.306Z,79.7
2016-11-22T23:52:17.809Z,79.7
2016-11-22T23:53:18.202Z,79.8
2016-11-22T23:54:18.598Z,79.6
2016-11-22T23:55:18.990Z,79.6
2016-11-22T23:56:19.364Z,80
2016-11-22T23:57:19.719Z,79.9
2016-11-22T23:58:20.080Z,80
2016-11-22T23:59:20.440Z,79.9
